createdAt,value
2023-03-22T00:01:25.546Z,22.08
2023-03-22T00:03:55.230Z,22.62
2023-03-22T00:06:25.128Z,22.69
2023-03-22T00:08:55.148Z,22.64
2023-03-22T00:11:27.131Z,22.37
2023-03-22T00:13:56.792Z,22.43
2023-03-22T00:16:26.772Z,22.53
2023-03-22T00:18:56.408Z,22.38
2023-03-22T00:21:26.008Z,22.54
2023-03-22T00:23:55.563Z,22.55
2023-03-22T00:26:25.218Z,22.21
2023-03-22T00:28:54.869Z,22.51
2023-03-22T00:31:24.437Z,22.48
2023-03-22T00:33:54.099Z,22.17
2023-03-22T00:36:23.784Z,22.48
2023-03-22T00:38:53.688Z,22.61
2023-03-22T00:41:24.471Z,22.50
2023-03-22T00:43:54.191Z,22.60
2023-03-22T00:46:23.906Z,22.33
2023-03-22T00:48:53.530Z,22.52
2023-03-22T00:51:23.200Z,22.65
2023-03-22T00:53:53.818Z,22.65
2023-03-22T00:56:24.537Z,22.70
2023-03-22T00:58:54.093Z,22.53
2023-03-22T01:01:23.704Z,22.66
2023-03-22T01:03:53.375Z,22.70
2023-03-22T01:06:23.019Z,22.74
2023-03-22T01:08:52.630Z,22.85
2023-03-22T01:11:22.272Z,22.54
2023-03-22T01:13:52.107Z,22.67
2023-03-22T01:16:21.895Z,22.67
2023-03-22T01:18:51.453Z,22.51
2023-03-22T01:21:21.088Z,22.53
2023-03-22T01:23:50.804Z,22.38
2023-03-22T01:26:20.396Z,22.57
2023-03-22T01:28:49.975Z,22.72
2023-03-22T01:31:19.580Z,22.34
2023-03-22T01:33:49.173Z,22.24
2023-03-22T01:36:18.769Z,22.68
2023-03-22T01:38:48.349Z,22.52
2023-03-22T01:41:18.933Z,22.75
2023-03-22T01:44:08.031Z,22.41
2023-03-22T01:46:38.229Z,23.33
2023-03-22T01:49:08.293Z,22.22
2023-03-22T01:51:37.943Z,22.32
2023-03-22T01:54:12.199Z,22.45
2023-03-22T01:56:41.976Z,22.56
2023-03-22T01:59:13.108Z,22.58
2023-03-22T02:01:42.761Z,22.68
2023-03-22T02:04:22.691Z,22.65
2023-03-22T02:06:55.837Z,22.32
2023-03-22T02:09:25.718Z,22.53
2023-03-22T02:12:21.279Z,22.83
2023-03-22T02:14:50.813Z,22.76
2023-03-22T02:17:32.538Z,22.38
2023-03-22T02:20:17.213Z,22.81
2023-03-22T02:22:51.557Z,22.64
2023-03-22T02:25:39.246Z,22.62
2023-03-22T02:28:24.021Z,22.74
2023-03-22T02:31:04.846Z,23.18
2023-03-22T02:33:41.662Z,22.57
2023-03-22T02:36:21.330Z,23.07
2023-03-22T02:39:14.841Z,22.89
2023-03-22T02:42:02.424Z,22.49
2023-03-22T02:44:49.148Z,22.88
2023-03-22T02:47:24.911Z,23.33
2023-03-22T02:50:12.232Z,23.28
2023-03-22T02:52:45.716Z,22.90
2023-03-22T02:55:22.916Z,23.26
2023-03-22T02:58:15.021Z,23.86
2023-03-22T03:00:45.197Z,23.01
2023-03-22T03:03:19.719Z,23.45
2023-03-22T03:05:57.397Z,23.32
2023-03-22T03:08:27.055Z,24.03
2023-03-22T03:10:57.062Z,23.51
2023-03-22T03:13:26.807Z,23.49
2023-03-22T03:16:00.419Z,23.93
2023-03-22T03:18:42.206Z,24.00
2023-03-22T03:21:36.414Z,23.97
2023-03-22T03:24:17.878Z,24.10
2023-03-22T03:26:59.486Z,24.13
2023-03-22T03:29:42.925Z,23.97
2023-03-22T03:32:27.179Z,23.70
2023-03-22T03:35:09.242Z,23.70
2023-03-22T03:37:43.866Z,24.10
2023-03-22T03:40:19.525Z,23.85
2023-03-22T03:42:53.595Z,24.41
2023-03-22T03:45:23.723Z,23.71
2023-03-22T03:47:58.552Z,23.68
2023-03-22T03:50:28.476Z,24.02
2023-03-22T03:52:58.382Z,24.16
2023-03-22T03:55:28.003Z,24.05
2023-03-22T03:57:57.658Z,23.78
2023-03-22T04:00:27.294Z,24.31
2023-03-22T04:02:57.232Z,24.24
2023-03-22T04:05:26.778Z,23.75
2023-03-22T04:07:56.365Z,24.43
2023-03-22T04:10:26.043Z,23.88
2023-03-22T04:12:55.661Z,24.53
2023-03-22T04:15:25.861Z,24.34
2023-03-22T04:17:58.574Z,24.43
2023-03-22T04:20:28.657Z,24.19
2023-03-22T04:22:59.597Z,24.23
2023-03-22T04:25:31.691Z,24.37
2023-03-22T04:28:02.081Z,24.30
2023-03-22T04:30:32.324Z,24.11
2023-03-22T04:33:02.854Z,24.00
2023-03-22T04:35:32.451Z,24.27
2023-03-22T04:38:02.800Z,24.99
2023-03-22T04:40:36.920Z,24.38
2023-03-22T04:43:06.409Z,24.22
2023-03-22T04:45:36.550Z,24.23
2023-03-22T04:48:06.252Z,24.31
2023-03-22T04:50:36.492Z,24.21
2023-03-22T04:53:06.100Z,24.46
2023-03-22T04:55:35.698Z,24.61
2023-03-22T04:58:05.334Z,24.08
2023-03-22T05:00:34.986Z,24.62
2023-03-22T05:03:05.629Z,24.15
2023-03-22T05:05:35.180Z,24.61
2023-03-22T05:08:04.702Z,24.09
2023-03-22T05:10:34.321Z,24.28
2023-03-22T05:13:03.918Z,23.82
2023-03-22T05:15:34.020Z,24.04
2023-03-22T05:18:03.736Z,24.07
2023-03-22T05:20:34.113Z,24.07
2023-03-22T05:23:04.181Z,24.04
2023-03-22T05:25:33.862Z,24.51
2023-03-22T05:28:03.607Z,24.28
2023-03-22T05:30:34.021Z,24.55
2023-03-22T05:33:05.576Z,24.56
2023-03-22T05:35:36.204Z,24.77
2023-03-22T05:38:06.364Z,24.90
2023-03-22T05:40:36.045Z,24.68
2023-03-22T05:43:05.612Z,24.48
2023-03-22T05:45:35.192Z,24.61
2023-03-22T05:48:05.315Z,24.82
2023-03-22T05:50:35.224Z,24.66
2023-03-22T05:53:05.595Z,24.99
2023-03-22T05:55:35.223Z,24.68
2023-03-22T05:58:06.610Z,25.19
2023-03-22T06:00:37.489Z,24.90
2023-03-22T06:03:07.345Z,24.88
2023-03-22T06:05:38.335Z,24.89
2023-03-22T06:08:07.943Z,24.80
2023-03-22T06:10:37.759Z,25.05
2023-03-22T06:13:07.577Z,25.00
2023-03-22T06:15:37.317Z,24.92
2023-03-22T06:18:06.878Z,24.95
2023-03-22T06:20:36.944Z,24.90
2023-03-22T06:23:06.824Z,25.24
2023-03-22T06:25:36.415Z,25.26
2023-03-22T06:28:08.496Z,25.19
2023-03-22T06:30:38.765Z,25.02
2023-03-22T06:33:08.654Z,25.08
2023-03-22T06:35:38.408Z,25.47
2023-03-22T06:38:08.060Z,25.12
2023-03-22T06:40:37.807Z,25.50
2023-03-22T06:43:07.626Z,24.74
2023-03-22T06:45:37.531Z,25.29
2023-03-22T06:48:07.574Z,25.58
2023-03-22T06:50:41.241Z,25.73
2023-03-22T06:53:12.145Z,25.68
2023-03-22T06:55:42.184Z,25.59
2023-03-22T06:58:11.938Z,25.65
2023-03-22T07:00:42.107Z,25.79
2023-03-22T07:03:12.011Z,25.27
2023-03-22T07:05:41.733Z,25.28
2023-03-22T07:08:11.417Z,25.21
2023-03-22T07:10:41.226Z,25.67
2023-03-22T07:13:11.127Z,25.46
2023-03-22T07:15:40.696Z,25.27
2023-03-22T07:18:10.347Z,25.57
2023-03-22T07:20:42.301Z,25.67
2023-03-22T07:23:14.720Z,25.25
2023-03-22T07:25:44.724Z,25.27
2023-03-22T07:28:14.392Z,25.89
2023-03-22T07:30:44.096Z,25.51
2023-03-22T07:33:13.713Z,25.49
2023-03-22T07:35:43.489Z,25.77
2023-03-22T07:38:13.279Z,25.41
2023-03-22T07:40:42.852Z,25.76
2023-03-22T07:43:14.665Z,26.27
2023-03-22T07:45:44.497Z,26.04
2023-03-22T07:48:14.240Z,25.73
2023-03-22T07:50:44.418Z,26.20
2023-03-22T07:53:14.153Z,26.09
2023-03-22T07:55:46.914Z,25.89
2023-03-22T07:58:16.597Z,26.25
2023-03-22T08:00:46.171Z,25.93
2023-03-22T08:03:15.863Z,25.83
2023-03-22T08:05:45.815Z,25.92
2023-03-22T08:08:15.426Z,25.57
2023-03-22T08:10:45.185Z,25.90
2023-03-22T08:13:14.745Z,26.04
2023-03-22T08:15:44.847Z,25.96
2023-03-22T08:18:14.641Z,25.64
2023-03-22T08:20:46.838Z,25.49
2023-03-22T08:23:17.779Z,25.82
2023-03-22T08:25:47.582Z,25.71
2023-03-22T08:28:17.721Z,25.99
2023-03-22T08:30:48.409Z,26.07
2023-03-22T08:33:18.147Z,25.59
2023-03-22T08:35:47.911Z,26.01
2023-03-22T08:38:18.388Z,26.34
2023-03-22T08:40:50.841Z,25.66
2023-03-22T08:43:20.451Z,25.94
2023-03-22T08:45:50.281Z,25.55
2023-03-22T08:48:20.498Z,25.88
2023-03-22T08:50:50.172Z,25.98
2023-03-22T08:53:19.743Z,26.04
2023-03-22T08:55:49.990Z,26.02
2023-03-22T08:58:21.533Z,26.00
2023-03-22T09:00:51.150Z,25.92
2023-03-22T09:03:20.794Z,25.88
2023-03-22T09:05:50.374Z,26.15
2023-03-22T09:08:20.187Z,26.40
2023-03-22T09:10:52.874Z,25.81
2023-03-22T09:13:22.632Z,25.90
2023-03-22T09:15:53.736Z,26.60
2023-03-22T09:18:24.015Z,26.21
2023-03-22T09:20:54.301Z,26.30
2023-03-22T09:23:23.987Z,26.41
2023-03-22T09:25:53.645Z,25.85
2023-03-22T09:28:23.388Z,26.40
2023-03-22T09:30:53.128Z,26.44
2023-03-22T09:33:22.783Z,26.17
2023-03-22T09:35:52.522Z,26.31
2023-03-22T09:38:23.142Z,26.06
2023-03-22T09:41:04.322Z,26.04
2023-03-22T09:43:58.615Z,25.81
2023-03-22T09:46:39.435Z,26.27
2023-03-22T09:49:14.937Z,25.65
2023-03-22T09:51:51.072Z,26.22
2023-03-22T09:54:26.503Z,25.84
2023-03-22T09:57:13.267Z,26.06
2023-03-22T09:59:55.910Z,25.83
2023-03-22T10:03:03.601Z,26.30
2023-03-22T10:05:39.310Z,26.22
2023-03-22T10:08:18.013Z,25.94
2023-03-22T10:10:47.602Z,26.30
2023-03-22T10:13:24.136Z,25.89
2023-03-22T10:15:57.896Z,26.08
2023-03-22T10:18:48.721Z,26.38
2023-03-22T10:21:18.934Z,26.05
2023-03-22T10:23:54.428Z,25.63
2023-03-22T10:26:43.812Z,25.89
2023-03-22T10:29:35.983Z,26.13
2023-03-22T10:33:09.870Z,26.25
2023-03-22T10:35:39.794Z,26.09
2023-03-22T10:38:11.218Z,26.58
2023-03-22T10:40:42.363Z,26.41
2023-03-22T10:43:25.730Z,26.47
2023-03-22T10:45:55.743Z,26.37
2023-03-22T10:48:25.413Z,26.17
2023-03-22T10:50:55.025Z,26.18
2023-03-22T10:53:40.073Z,26.03
2023-03-22T10:56:15.158Z,26.57
2023-03-22T10:58:44.925Z,26.29
2023-03-22T11:01:16.346Z,25.84
2023-03-22T11:03:53.223Z,26.38
2023-03-22T11:06:31.541Z,26.15
2023-03-22T11:09:02.909Z,26.51
2023-03-22T11:12:00.223Z,26.40
2023-03-22T11:14:39.336Z,26.24
2023-03-22T11:17:09.573Z,26.03
2023-03-22T11:19:43.554Z,26.41
2023-03-22T11:22:31.526Z,26.42
2023-03-22T11:25:01.338Z,26.23
2023-03-22T11:27:32.748Z,26.24
2023-03-22T11:30:31.830Z,26.59
2023-03-22T11:33:10.629Z,26.31
2023-03-22T11:35:41.233Z,26.07
2023-03-22T11:38:14.743Z,26.42
2023-03-22T11:40:44.647Z,26.89
2023-03-22T11:43:27.056Z,26.20
2023-03-22T11:45:58.819Z,26.30
2023-03-22T11:48:30.460Z,26.30
2023-03-22T11:51:14.768Z,26.08
2023-03-22T11:53:49.555Z,26.77
2023-03-22T11:56:20.782Z,26.68
2023-03-22T11:59:08.609Z,26.54
2023-03-22T12:02:09.362Z,26.58
2023-03-22T12:04:40.375Z,26.42
2023-03-22T12:07:18.397Z,26.55
2023-03-22T12:10:19.145Z,26.70
2023-03-22T12:13:00.646Z,26.43
2023-03-22T12:15:37.893Z,26.77
2023-03-22T12:18:21.582Z,27.00
2023-03-22T12:21:00.750Z,26.76
2023-03-22T12:23:36.479Z,26.65
2023-03-22T12:26:14.709Z,27.01
2023-03-22T12:28:52.961Z,26.70
2023-03-22T12:31:38.130Z,26.89
2023-03-22T12:34:10.255Z,26.49
2023-03-22T12:36:52.508Z,26.99
2023-03-22T12:39:33.159Z,27.03
2023-03-22T12:42:11.769Z,26.58
2023-03-22T12:44:55.554Z,26.89
2023-03-22T12:47:30.500Z,26.60
2023-03-22T12:50:10.416Z,26.70
2023-03-22T12:52:45.675Z,27.34
2023-03-22T12:55:41.876Z,26.60
2023-03-22T12:58:12.272Z,26.67
2023-03-22T13:00:47.731Z,27.03
2023-03-22T13:03:20.572Z,26.67
2023-03-22T13:05:51.835Z,26.97
2023-03-22T13:08:23.103Z,27.00
2023-03-22T13:11:05.956Z,27.21
2023-03-22T13:13:42.687Z,26.73
2023-03-22T13:16:15.087Z,26.78
2023-03-22T13:18:47.808Z,26.98
2023-03-22T13:21:22.791Z,26.81
2023-03-22T13:24:02.442Z,27.50
2023-03-22T13:26:49.734Z,27.34
2023-03-22T13:29:20.088Z,27.03
2023-03-22T13:32:00.237Z,27.26
2023-03-22T13:34:48.854Z,26.82
2023-03-22T13:37:36.608Z,27.33
2023-03-22T13:40:39.633Z,26.90
2023-03-22T13:43:14.404Z,27.39
2023-03-22T13:46:07.132Z,27.05
2023-03-22T13:48:54.987Z,26.89
2023-03-22T13:51:24.712Z,26.81
2023-03-22T13:54:09.384Z,27.17
2023-03-22T13:56:44.804Z,27.43
2023-03-22T13:59:21.186Z,27.27
2023-03-22T14:02:13.049Z,27.02
2023-03-22T14:04:49.314Z,27.06
2023-03-22T14:07:42.327Z,27.54
2023-03-22T14:10:16.303Z,27.13
2023-03-22T14:12:52.071Z,26.88
2023-03-22T14:15:30.534Z,27.07
2023-03-22T14:18:06.684Z,27.10
2023-03-22T14:20:40.119Z,27.17
